Time;durP1;ratioP1;P1;durP2;ratioP2;P2;SDS_P1;SDS_P2;PMS_P1;PMS_P2;Temp;Humidity;BMP_temperature;BMP_pressure;BME280_temperature;BME280_humidity;BME280_pressure;Samples;Min_cycle;Max_cycle;Signal;HPM_P1;HPM_P2
2022/11/09 00:03:01;;;;;;;16.80;8.77;;;;;;;;;;6198922;23;20176;-88
2022/11/09 00:06:08;;;;;;;16.03;8.43;;;;;;;;;;6198271;23;20176;-89
2022/11/09 00:09:15;;;;;;;18.50;9.40;;;;;;;;;;6197950;23;20187;-88
2022/11/09 00:12:20;;;;;;;18.03;10.10;;;;;;;;;;6197614;23;20580;-88
2022/11/09 00:15:25;;;;;;;33.63;13.80;;;;;;;;;;6196465;23;20172;-90
2022/11/09 00:18:34;;;;;;;18.87;10.63;;;;;;;;;;6198476;23;20168;-91
2022/11/09 00:21:39;;;;;;;26.03;12.93;;;;;;;;;;6195336;23;20188;-90
2022/11/09 00:24:45;;;;;;;23.33;11.60;;;;;;;;;;6194134;23;20179;-90
2022/11/09 00:27:50;;;;;;;17.80;9.87;;;;;;;;;;6194365;23;20176;-87
2022/11/09 00:31:01;;;;;;;24.50;12.63;;;;;;;;;;6195275;23;20269;-90
2022/11/09 00:34:06;;;;;;;30.33;13.53;;;;;;;;;;6194628;23;20176;-90
2022/11/09 00:37:12;;;;;;;24.80;12.00;;;;;;;;;;6198548;23;20224;-89
2022/11/09 00:40:19;;;;;;;21.53;10.93;;;;;;;;;;6196727;23;20655;-87
2022/11/09 00:43:24;;;;;;;17.70;9.53;;;;;;;;;;6196752;23;20187;-89
2022/11/09 00:46:29;;;;;;;23.47;10.53;;;;;;;;;;6196676;23;20176;-88
2022/11/09 00:49:34;;;;;;;19.83;9.80;;;;;;;;;;6197506;23;20191;-90
2022/11/09 00:52:40;;;;;;;20.00;10.13;;;;;;;;;;6199315;23;20192;-86
2022/11/09 00:55:55;;;;;;;20.53;10.93;;;;;;;;;;6196214;23;20501;-87
2022/11/09 00:59:00;;;;;;;19.23;10.27;;;;;;;;;;6196993;23;20172;-90
2022/11/09 01:02:05;;;;;;;18.97;11.07;;;;;;;;;;6196571;23;20171;-88
2022/11/09 01:05:12;;;;;;;22.30;10.67;;;;;;;;;;6197627;23;20662;-88
2022/11/09 01:08:17;;;;;;;19.20;10.57;;;;;;;;;;6196731;23;20619;-89
2022/11/09 01:11:25;;;;;;;21.80;10.80;;;;;;;;;;6196201;23;20210;-87
2022/11/09 01:14:31;;;;;;;23.90;11.60;;;;;;;;;;6196721;23;20187;-88
2022/11/09 01:17:36;;;;;;;24.63;10.73;;;;;;;;;;6198811;23;20171;-89
2022/11/09 01:20:42;;;;;;;21.03;11.00;;;;;;;;;;6197127;23;20570;-88
2022/11/09 01:23:48;;;;;;;25.20;10.37;;;;;;;;;;6196267;23;20168;-87
2022/11/09 01:26:54;;;;;;;20.13;11.03;;;;;;;;;;6196222;23;20239;-89
2022/11/09 01:29:59;;;;;;;22.47;10.80;;;;;;;;;;6195944;23;20199;-88
2022/11/09 01:33:05;;;;;;;19.97;10.43;;;;;;;;;;6196039;23;20171;-89
2022/11/09 01:36:13;;;;;;;19.80;10.50;;;;;;;;;;6196252;23;20222;-92
2022/11/09 01:39:19;;;;;;;21.47;10.70;;;;;;;;;;6195283;23;20260;-90
2022/11/09 01:42:26;;;;;;;22.60;11.10;;;;;;;;;;6196303;23;20196;-89
2022/11/09 01:45:34;;;;;;;23.17;11.50;;;;;;;;;;6193731;23;20171;-88
2022/11/09 01:48:41;;;;;;;22.60;9.87;;;;;;;;;;6194664;23;20253;-89
2022/11/09 01:51:48;;;;;;;22.73;10.10;;;;;;;;;;6193284;23;20606;-91
2022/11/09 01:54:58;;;;;;;22.93;10.57;;;;;;;;;;6193999;23;20159;-90
2022/11/09 01:58:08;;;;;;;23.70;10.03;;;;;;;;;;6193282;23;20223;-88
2022/11/09 02:01:13;;;;;;;28.60;11.43;;;;;;;;;;6194485;23;20175;-89
2022/11/09 02:04:21;;;;;;;45.53;11.37;;;;;;;;;;6194807;23;20640;-89
2022/11/09 02:07:26;;;;;;;21.00;10.00;;;;;;;;;;6194094;23;20246;-91
2022/11/09 02:10:33;;;;;;;19.40;8.53;;;;;;;;;;6194242;23;20654;-87
2022/11/09 02:13:42;;;;;;;20.90;8.90;;;;;;;;;;6195404;23;20167;-90
2022/11/09 02:16:48;;;;;;;23.57;9.87;;;;;;;;;;6195018;23;20172;-88
2022/11/09 02:19:54;;;;;;;18.57;9.50;;;;;;;;;;6195837;23;20163;-88
2022/11/09 02:23:00;;;;;;;18.17;9.37;;;;;;;;;;6196360;23;20175;-88
2022/11/09 02:26:08;;;;;;;20.77;9.63;;;;;;;;;;6194646;23;20172;-89
2022/11/09 02:29:14;;;;;;;15.93;8.77;;;;;;;;;;6194998;23;20175;-88
2022/11/09 02:32:21;;;;;;;22.90;8.20;;;;;;;;;;6195561;23;20232;-87
2022/11/09 02:35:27;;;;;;;44.60;8.27;;;;;;;;;;6197062;23;20171;-90
2022/11/09 02:38:33;;;;;;;17.07;7.77;;;;;;;;;;6197458;23;20172;-88
2022/11/09 02:41:43;;;;;;;16.90;7.70;;;;;;;;;;6195937;23;20167;-86
2022/11/09 02:44:54;;;;;;;17.33;8.33;;;;;;;;;;6195015;23;20175;-89
2022/11/09 02:48:00;;;;;;;19.87;8.87;;;;;;;;;;6196758;23;20188;-88
2022/11/09 02:51:10;;;;;;;17.30;8.17;;;;;;;;;;6197036;23;20191;-90
2022/11/09 02:54:21;;;;;;;17.10;8.53;;;;;;;;;;6196300;23;20623;-89
2022/11/09 02:57:27;;;;;;;22.50;9.27;;;;;;;;;;6197213;23;20614;-89
2022/11/09 03:00:33;;;;;;;20.30;9.03;;;;;;;;;;6197410;23;20611;-89
2022/11/09 03:03:38;;;;;;;20.03;8.93;;;;;;;;;;6195717;23;20171;-89
2022/11/09 03:06:43;;;;;;;16.97;8.07;;;;;;;;;;6196791;23;20615;-89
2022/11/09 03:09:57;;;;;;;19.17;8.90;;;;;;;;;;6197211;23;20373;-88
2022/11/09 03:13:04;;;;;;;15.77;8.53;;;;;;;;;;6196685;23;20172;-89
2022/11/09 03:16:10;;;;;;;25.70;9.40;;;;;;;;;;6197213;23;20168;-89
2022/11/09 03:19:18;;;;;;;20.30;9.23;;;;;;;;;;6195886;23;20171;-87
2022/11/09 03:22:25;;;;;;;57.03;10.60;;;;;;;;;;6198300;23;20195;-91
2022/11/09 03:25:32;;;;;;;49.00;10.87;;;;;;;;;;6195399;23;20175;-90
2022/11/09 03:28:38;;;;;;;20.67;9.73;;;;;;;;;;6195254;23;20171;-89
2022/11/09 03:31:44;;;;;;;22.20;9.10;;;;;;;;;;6196962;23;20212;-88
2022/11/09 03:34:50;;;;;;;24.27;9.70;;;;;;;;;;6195142;23;20175;-87
2022/11/09 03:37:56;;;;;;;23.33;9.30;;;;;;;;;;6194548;23;20176;-88
2022/11/09 03:41:04;;;;;;;48.33;9.77;;;;;;;;;;6195324;23;20168;-89
2022/11/09 03:44:10;;;;;;;37.30;8.90;;;;;;;;;;6194957;23;20232;-87
2022/11/09 03:47:16;;;;;;;14.33;7.70;;;;;;;;;;6195078;23;20172;-87
2022/11/09 03:50:20;;;;;;;14.73;7.73;;;;;;;;;;6194922;23;20238;-87
2022/11/09 03:53:25;;;;;;;14.00;6.93;;;;;;;;;;6195600;23;20252;-89
2022/11/09 03:56:32;;;;;;;15.33;6.73;;;;;;;;;;6196537;23;20551;-88
2022/11/09 03:59:37;;;;;;;13.50;6.90;;;;;;;;;;6196768;23;20171;-90
2022/11/09 04:02:42;;;;;;;12.90;6.33;;;;;;;;;;6196071;23;20170;-89
2022/11/09 04:05:51;;;;;;;12.57;5.67;;;;;;;;;;6197352;23;20168;-89
2022/11/09 04:08:56;;;;;;;11.73;6.47;;;;;;;;;;6195575;23;20171;-90
2022/11/09 04:12:03;;;;;;;10.67;6.37;;;;;;;;;;6195044;23;20441;-87
2022/11/09 04:15:08;;;;;;;10.77;5.90;;;;;;;;;;6195663;23;20207;-88
2022/11/09 04:18:15;;;;;;;12.03;6.67;;;;;;;;;;6194795;23;20630;-91
2022/11/09 04:21:20;;;;;;;11.87;6.40;;;;;;;;;;6194261;23;20171;-91
2022/11/09 04:24:25;;;;;;;12.23;6.33;;;;;;;;;;6196190;23;20618;-86
2022/11/09 04:27:32;;;;;;;11.60;5.90;;;;;;;;;;6198451;23;20171;-88
2022/11/09 04:30:38;;;;;;;19.10;7.07;;;;;;;;;;6203804;23;20174;-90
2022/11/09 04:33:43;;;;;;;17.37;7.93;;;;;;;;;;6197900;23;20172;-89
2022/11/09 04:36:48;;;;;;;17.53;7.60;;;;;;;;;;6197786;23;20207;-87
2022/11/09 04:39:53;;;;;;;12.43;6.30;;;;;;;;;;6196333;23;20172;-88
2022/11/09 04:43:01;;;;;;;37.50;7.30;;;;;;;;;;6197470;23;20171;-89
2022/11/09 04:46:16;;;;;;;13.43;7.30;;;;;;;;;;6196187;23;20212;-87
2022/11/09 04:49:21;;;;;;;10.33;5.83;;;;;;;;;;6196383;23;20173;-87
2022/11/09 04:52:26;;;;;;;10.67;6.60;;;;;;;;;;6196298;23;20238;-90
2022/11/09 04:55:30;;;;;;;11.57;6.37;;;;;;;;;;6196000;23;20179;-87
2022/11/09 04:58:37;;;;;;;10.13;6.07;;;;;;;;;;6195857;23;20678;-87
2022/11/09 05:01:43;;;;;;;10.43;5.43;;;;;;;;;;6195292;23;20659;-92
2022/11/09 05:04:48;;;;;;;10.93;6.13;;;;;;;;;;6196593;23;20243;-90
2022/11/09 05:07:53;;;;;;;10.00;5.37;;;;;;;;;;6194863;23;20200;-87
2022/11/09 05:10:58;;;;;;;9.83;5.47;;;;;;;;;;6196217;23;20212;-90
2022/11/09 05:14:05;;;;;;;9.67;5.33;;;;;;;;;;6197328;23;20191;-89
2022/11/09 05:17:10;;;;;;;10.67;6.13;;;;;;;;;;6198749;23;20612;-90
2022/11/09 05:20:15;;;;;;;13.20;6.00;;;;;;;;;;6198291;23;20191;-87
2022/11/09 05:26:43;;;;;;;12.43;6.73;;;;;;;;;;6199941;23;20193;-91
2022/11/09 05:29:51;;;;;;;14.03;6.30;;;;;;;;;;6198270;23;20167;-93
2022/11/09 05:32:56;;;;;;;11.97;6.77;;;;;;;;;;6197238;23;20207;-91
2022/11/09 05:36:01;;;;;;;9.97;5.83;;;;;;;;;;6197712;23;20180;-91
2022/11/09 05:39:06;;;;;;;11.77;6.37;;;;;;;;;;6197084;23;20183;-88
2022/11/09 05:42:11;;;;;;;20.03;7.53;;;;;;;;;;6197447;23;20240;-89
2022/11/09 05:45:24;;;;;;;13.33;6.50;;;;;;;;;;6198985;23;20172;-89
2022/11/09 05:48:30;;;;;;;11.43;6.23;;;;;;;;;;6199141;23;20175;-89
2022/11/09 05:51:37;;;;;;;17.97;6.67;;;;;;;;;;6199687;23;20204;-88
2022/11/09 05:54:42;;;;;;;15.87;6.07;;;;;;;;;;6200909;23;20172;-90
2022/11/09 05:57:47;;;;;;;11.77;6.13;;;;;;;;;;6199472;23;20167;-89
2022/11/09 06:00:53;;;;;;;13.83;6.17;;;;;;;;;;6200247;23;20755;-89
2022/11/09 06:03:58;;;;;;;23.23;6.23;;;;;;;;;;6200406;23;20171;-90
2022/11/09 06:07:04;;;;;;;11.30;6.40;;;;;;;;;;6203129;23;20607;-90
2022/11/09 06:10:09;;;;;;;14.07;5.63;;;;;;;;;;6200154;23;20164;-89
2022/11/09 06:13:15;;;;;;;16.07;5.73;;;;;;;;;;6200787;23;20171;-90
2022/11/09 06:16:22;;;;;;;9.67;5.67;;;;;;;;;;6201388;23;20163;-89
2022/11/09 06:19:27;;;;;;;39.23;6.70;;;;;;;;;;6204137;23;20207;-91
2022/11/09 06:22:33;;;;;;;12.30;6.23;;;;;;;;;;6202857;23;20207;-90
2022/11/09 06:25:39;;;;;;;15.60;7.17;;;;;;;;;;6202823;23;20228;-91
2022/11/09 06:28:47;;;;;;;19.23;6.40;;;;;;;;;;6202158;23;20244;-89
2022/11/09 06:31:56;;;;;;;13.00;6.53;;;;;;;;;;6201672;23;20252;-88
2022/11/09 06:35:02;;;;;;;22.57;6.10;;;;;;;;;;6201581;23;20159;-89
2022/11/09 06:38:08;;;;;;;21.10;5.90;;;;;;;;;;6202023;23;20192;-90
2022/11/09 06:41:15;;;;;;;10.87;5.57;;;;;;;;;;6202232;23;20615;-91
2022/11/09 06:44:20;;;;;;;14.03;6.23;;;;;;;;;;6200843;23;20168;-89
2022/11/09 06:47:28;;;;;;;13.47;6.63;;;;;;;;;;6203468;23;20196;-88
2022/11/09 06:50:34;;;;;;;12.97;6.07;;;;;;;;;;6201484;23;20271;-91
2022/11/09 06:53:40;;;;;;;9.53;5.73;;;;;;;;;;6197208;23;20194;-90
2022/11/09 06:56:45;;;;;;;13.37;5.97;;;;;;;;;;6200776;23;20179;-90
2022/11/09 06:59:50;;;;;;;12.47;6.00;;;;;;;;;;6198242;23;20664;-87
2022/11/09 07:02:57;;;;;;;28.17;6.07;;;;;;;;;;6199601;23;20171;-89
2022/11/09 07:06:07;;;;;;;22.87;5.87;;;;;;;;;;6203864;23;20176;-87
2022/11/09 07:09:13;;;;;;;46.27;6.23;;;;;;;;;;6200795;23;20172;-92
2022/11/09 07:12:19;;;;;;;22.87;6.00;;;;;;;;;;6200272;23;20192;-90
2022/11/09 07:15:24;;;;;;;13.13;5.97;;;;;;;;;;6201768;23;20179;-90
2022/11/09 07:18:31;;;;;;;14.77;6.40;;;;;;;;;;6200940;23;20501;-91
2022/11/09 07:21:37;;;;;;;13.43;5.77;;;;;;;;;;6201479;23;20168;-88
2022/11/09 07:24:45;;;;;;;16.20;7.13;;;;;;;;;;6201504;23;20176;-91
2022/11/09 07:27:50;;;;;;;11.13;5.30;;;;;;;;;;6201012;23;20162;-88
2022/11/09 07:30:57;;;;;;;13.10;6.60;;;;;;;;;;6202156;23;20244;-92
2022/11/09 07:34:04;;;;;;;15.93;4.47;;;;;;;;;;6202148;23;20172;-89
2022/11/09 07:37:10;;;;;;;14.93;5.27;;;;;;;;;;6203500;23;20172;-88
2022/11/09 07:40:15;;;;;;;10.50;4.80;;;;;;;;;;6202944;23;20167;-91
2022/11/09 07:43:22;;;;;;;20.93;4.93;;;;;;;;;;6200211;23;20163;-89
2022/11/09 07:46:49;;;;;;;10.43;5.07;;;;;;;;;;6200690;23;20164;-89
2022/11/09 07:49:56;;;;;;;13.40;4.80;;;;;;;;;;6201570;23;20497;-90
2022/11/09 07:53:06;;;;;;;8.00;4.43;;;;;;;;;;6203424;23;20236;-89
2022/11/09 07:56:12;;;;;;;11.63;5.20;;;;;;;;;;6201305;23;20168;-90
2022/11/09 07:59:17;;;;;;;7.67;4.10;;;;;;;;;;6201357;23;20183;-89
2022/11/09 08:02:23;;;;;;;8.70;4.00;;;;;;;;;;6199918;23;20514;-89
2022/11/09 08:05:31;;;;;;;6.87;4.20;;;;;;;;;;6200962;23;20175;-90
2022/11/09 08:08:36;;;;;;;7.65;4.10;;;;;;;;;;6198896;23;20172;-88
2022/11/09 08:11:41;;;;;;;9.32;4.88;;;;;;;;;;6197310;23;20200;-90
2022/11/09 08:14:46;;;;;;;13.60;5.90;;;;;;;;;;6195428;23;20172;-89
2022/11/09 08:17:51;;;;;;;7.43;4.47;;;;;;;;;;6196438;23;20551;-89
2022/11/09 08:20:58;;;;;;;11.57;4.60;;;;;;;;;;6197778;23;20175;-89
2022/11/09 08:24:04;;;;;;;9.02;4.75;;;;;;;;;;6198546;23;20308;-89
2022/11/09 08:27:09;;;;;;;8.35;4.60;;;;;;;;;;6199422;23;20152;-88
2022/11/09 08:30:16;;;;;;;7.68;4.55;;;;;;;;;;6199752;23;20238;-88
2022/11/09 08:33:22;;;;;;;7.80;4.55;;;;;;;;;;6199617;23;20491;-93
2022/11/09 08:36:30;;;;;;;10.47;4.70;;;;;;;;;;6201300;23;20181;-89
2022/11/09 08:39:35;;;;;;;6.87;4.10;;;;;;;;;;6201631;23;20172;-88
2022/11/09 08:42:41;;;;;;;11.23;4.47;;;;;;;;;;6201329;23;20169;-88
2022/11/09 08:45:50;;;;;;;7.70;4.40;;;;;;;;;;6201210;23;20267;-89
2022/11/09 08:48:56;;;;;;;8.90;4.43;;;;;;;;;;6203014;23;20172;-89
2022/11/09 08:52:02;;;;;;;7.90;4.03;;;;;;;;;;6200415;23;20207;-90
2022/11/09 08:55:08;;;;;;;9.10;4.70;;;;;;;;;;6199448;23;20171;-89
2022/11/09 08:58:13;;;;;;;21.00;9.80;;;;;;;;;;6199370;23;20171;-89
2022/11/09 09:01:18;;;;;;;11.50;4.50;;;;;;;;;;6200470;23;20770;-89
2022/11/09 09:04:25;;;;;;;15.10;4.77;;;;;;;;;;6200477;23;20176;-89
2022/11/09 09:07:31;;;;;;;9.60;4.40;;;;;;;;;;6201574;23;20249;-91
2022/11/09 09:10:39;;;;;;;14.53;4.50;;;;;;;;;;6203256;23;20168;-89
2022/11/09 09:13:44;;;;;;;9.70;4.40;;;;;;;;;;6202730;23;20175;-89
2022/11/09 09:16:50;;;;;;;7.77;3.93;;;;;;;;;;6202050;23;20554;-91
2022/11/09 09:19:55;;;;;;;9.27;4.30;;;;;;;;;;6200761;23;20369;-90
2022/11/09 09:23:02;;;;;;;7.87;4.63;;;;;;;;;;6201764;23;20149;-90
2022/11/09 09:26:08;;;;;;;10.80;4.73;;;;;;;;;;6202123;23;20257;-89
2022/11/09 09:29:14;;;;;;;8.88;5.18;;;;;;;;;;6200370;23;20167;-90
2022/11/09 09:32:19;;;;;;;7.63;4.27;;;;;;;;;;6200083;23;20253;-89
2022/11/09 09:35:25;;;;;;;11.43;5.18;;;;;;;;;;6199518;23;20175;-90
2022/11/09 09:38:31;;;;;;;10.00;5.13;;;;;;;;;;6201444;23;20188;-91
2022/11/09 09:41:39;;;;;;;10.35;5.43;;;;;;;;;;6202354;23;20274;-89
2022/11/09 09:48:36;;;;;;;15.50;6.90;;;;;;;;;;6200303;23;20208;-90
2022/11/09 09:51:43;;;;;;;14.38;6.80;;;;;;;;;;6200359;23;20259;-88
2022/11/09 09:54:54;;;;;;;13.60;6.53;;;;;;;;;;6199111;23;20216;-90
2022/11/09 09:58:03;;;;;;;13.20;6.78;;;;;;;;;;6202198;23;20152;-89
2022/11/09 10:01:18;;;;;;;14.07;6.47;;;;;;;;;;6207904;23;20211;-86
2022/11/09 10:04:28;;;;;;;14.48;6.95;;;;;;;;;;6205039;23;20180;-89
2022/11/09 10:07:38;;;;;;;13.23;6.63;;;;;;;;;;6204077;23;20171;-92
2022/11/09 10:10:50;;;;;;;14.23;6.72;;;;;;;;;;6201340;23;20213;-89
2022/11/09 10:14:02;;;;;;;11.95;6.45;;;;;;;;;;6199580;23;20172;-90
2022/11/09 10:17:13;;;;;;;14.32;6.75;;;;;;;;;;6200485;23;20216;-92
2022/11/09 10:20:23;;;;;;;16.33;7.40;;;;;;;;;;6202071;23;20397;-91
2022/11/09 10:23:38;;;;;;;17.92;7.70;;;;;;;;;;6201029;23;20192;-88
2022/11/09 10:26:47;;;;;;;15.10;7.60;;;;;;;;;;6199920;23;20262;-90
2022/11/09 10:29:52;;;;;;;18.35;7.70;;;;;;;;;;6199781;23;20159;-89
2022/11/09 10:33:00;;;;;;;15.25;7.25;;;;;;;;;;6198650;23;20198;-88
2022/11/09 10:36:12;;;;;;;17.77;7.18;;;;;;;;;;6199146;23;20620;-89
2022/11/09 10:39:18;;;;;;;17.80;7.25;;;;;;;;;;6198999;23;20666;-90
2022/11/09 10:42:45;;;;;;;17.05;7.10;;;;;;;;;;6202828;23;20544;-89
2022/11/09 10:46:13;;;;;;;16.58;7.38;;;;;;;;;;6206320;23;20230;-88
2022/11/09 10:49:38;;;;;;;15.18;7.10;;;;;;;;;;6202209;23;20168;-90
2022/11/09 10:53:11;;;;;;;16.17;7.85;;;;;;;;;;6202563;23;20243;-88
2022/11/09 10:56:44;;;;;;;18.60;7.82;;;;;;;;;;6200409;23;20236;-89
2022/11/09 11:00:14;;;;;;;16.23;7.13;;;;;;;;;;6202368;23;20172;-89
2022/11/09 11:03:40;;;;;;;17.88;7.97;;;;;;;;;;6202343;23;20234;-89
2022/11/09 11:07:14;;;;;;;14.15;6.55;;;;;;;;;;6202353;23;20602;-91
2022/11/09 11:10:39;;;;;;;15.77;7.40;;;;;;;;;;6199455;23;20167;-88
2022/11/09 11:14:11;;;;;;;14.10;6.93;;;;;;;;;;6201039;23;20191;-90
2022/11/09 11:17:37;;;;;;;12.02;5.93;;;;;;;;;;6200426;23;20175;-92
2022/11/09 11:21:12;;;;;;;13.23;6.30;;;;;;;;;;6200595;23;20175;-89
2022/11/09 11:24:42;;;;;;;11.07;5.88;;;;;;;;;;6200826;23;20176;-89
2022/11/09 11:28:11;;;;;;;12.98;6.65;;;;;;;;;;6201299;23;20183;-89
2022/11/09 11:31:36;;;;;;;12.43;6.30;;;;;;;;;;6200678;23;20187;-90
2022/11/09 11:35:02;;;;;;;11.85;6.18;;;;;;;;;;6200683;23;20172;-92
2022/11/09 11:38:28;;;;;;;12.85;6.40;;;;;;;;;;6200293;23;20180;-90
2022/11/09 11:42:00;;;;;;;13.60;6.70;;;;;;;;;;6199279;23;20623;-88
2022/11/09 11:45:34;;;;;;;13.82;6.82;;;;;;;;;;6200020;23;20191;-92
2022/11/09 11:49:10;;;;;;;14.75;7.07;;;;;;;;;;6203248;23;20187;-89
2022/11/09 11:52:47;;;;;;;17.33;8.65;;;;;;;;;;6212508;23;20218;-91
2022/11/09 11:56:20;;;;;;;18.75;7.95;;;;;;;;;;6185985;23;20237;-91
2022/11/09 11:59:59;;;;;;;18.67;8.35;;;;;;;;;;6142608;23;20216;-88
2022/11/09 12:03:41;;;;;;;20.58;8.07;;;;;;;;;;6060026;23;20184;-91
2022/11/09 12:07:10;;;;;;;20.40;8.82;;;;;;;;;;5761348;24;20197;-90
2022/11/09 19:32:37;;;;;;;40.00;17.40;;;;;;;;;;6110632;22;2929351;-89
2022/11/09 19:36:05;;;;;;;37.37;17.23;;;;;;;;;;6235416;23;20191;-90
2022/11/09 19:39:30;;;;;;;34.30;15.30;;;;;;;;;;6234285;23;20163;-88
2022/11/09 19:42:54;;;;;;;31.47;14.83;;;;;;;;;;6236163;23;20167;-88
2022/11/09 19:46:44;;;;;;;31.20;14.83;;;;;;;;;;6234555;23;20215;-89
2022/11/09 19:50:11;;;;;;;28.67;14.63;;;;;;;;;;6235552;23;20171;-88
2022/11/09 19:53:36;;;;;;;30.90;14.60;;;;;;;;;;6234685;23;20183;-88
2022/11/09 19:57:00;;;;;;;26.27;12.43;;;;;;;;;;6235774;23;20194;-90
2022/11/09 20:00:26;;;;;;;24.00;11.57;;;;;;;;;;6234918;23;20175;-90
2022/11/09 20:03:56;;;;;;;23.77;12.03;;;;;;;;;;6233336;23;20210;-89
2022/11/09 20:07:22;;;;;;;26.67;12.67;;;;;;;;;;6232668;23;20285;-90
2022/11/09 20:10:46;;;;;;;26.17;12.20;;;;;;;;;;6231490;23;20173;-90
2022/11/09 20:14:11;;;;;;;28.30;12.70;;;;;;;;;;6231757;23;20174;-91
2022/11/09 20:17:36;;;;;;;29.20;13.80;;;;;;;;;;6229237;23;20548;-92
2022/11/09 20:20:59;;;;;;;37.47;16.13;;;;;;;;;;6230503;23;20194;-89
2022/11/09 20:24:25;;;;;;;27.63;13.00;;;;;;;;;;6228692;23;20167;-91
2022/11/09 20:27:49;;;;;;;31.50;14.05;;;;;;;;;;6231322;23;20174;-89
2022/11/09 20:31:15;;;;;;;41.03;15.13;;;;;;;;;;6232094;23;20638;-92
2022/11/09 20:34:44;;;;;;;35.60;14.70;;;;;;;;;;6231984;23;20286;-90
2022/11/09 20:38:09;;;;;;;35.07;15.23;;;;;;;;;;6234961;23;20171;-90
2022/11/09 20:41:35;;;;;;;34.80;16.13;;;;;;;;;;6233144;23;20161;-89
2022/11/09 20:45:00;;;;;;;33.93;14.60;;;;;;;;;;6231753;23;20194;-89
2022/11/09 20:48:25;;;;;;;44.77;20.10;;;;;;;;;;6233817;23;20224;-87
2022/11/09 20:51:49;;;;;;;27.53;12.97;;;;;;;;;;6237686;23;20171;-90
2022/11/09 20:55:15;;;;;;;24.40;11.77;;;;;;;;;;6235238;23;20253;-90
2022/11/09 20:58:41;;;;;;;30.92;14.85;;;;;;;;;;6234604;23;20583;-89
2022/11/09 21:02:07;;;;;;;26.55;12.45;;;;;;;;;;6234275;23;20602;-89
2022/11/09 21:05:30;;;;;;;29.02;12.50;;;;;;;;;;6233535;23;20180;-89
2022/11/09 21:08:56;;;;;;;32.73;15.37;;;;;;;;;;6232656;23;20184;-91
2022/11/09 21:12:26;;;;;;;32.03;15.23;;;;;;;;;;6234683;23;20155;-89
2022/11/09 21:15:53;;;;;;;42.97;20.48;;;;;;;;;;6236732;23;20195;-90
2022/11/09 21:19:19;;;;;;;32.78;15.98;;;;;;;;;;6234995;23;20195;-90
2022/11/09 21:30:03;;;;;;;24.77;11.57;;;;;;;;;;6231657;23;20183;-90
2022/11/09 21:33:30;;;;;;;25.50;11.77;;;;;;;;;;6233917;23;20198;-90
2022/11/09 21:36:54;;;;;;;32.00;14.67;;;;;;;;;;6233927;23;20164;-91
2022/11/09 21:40:23;;;;;;;29.30;13.63;;;;;;;;;;6235542;23;20179;-90
2022/11/09 21:43:48;;;;;;;25.77;12.27;;;;;;;;;;6233295;23;20199;-88
2022/11/09 21:51:23;;;;;;;27.53;12.30;;;;;;;;;;6231471;23;20153;-90
2022/11/09 21:54:47;;;;;;;35.17;15.20;;;;;;;;;;6231802;23;20563;-90
2022/11/09 21:58:12;;;;;;;26.97;12.50;;;;;;;;;;6231995;23;20166;-91
2022/11/09 22:01:36;;;;;;;28.23;12.87;;;;;;;;;;6232349;23;20215;-91
2022/11/09 22:05:00;;;;;;;34.87;13.90;;;;;;;;;;6234080;23;20186;-90
2022/11/09 22:08:27;;;;;;;29.07;14.83;;;;;;;;;;6232160;23;20171;-89
2022/11/09 22:22:58;;;;;;;27.07;12.70;;;;;;;;;;6232993;23;20175;-90
2022/11/09 22:26:25;;;;;;;31.40;12.90;;;;;;;;;;6230943;23;20171;-92
2022/11/09 22:29:50;;;;;;;30.40;13.00;;;;;;;;;;6231334;23;20257;-90
2022/11/09 22:33:16;;;;;;;25.13;12.20;;;;;;;;;;6229390;23;20176;-90
2022/11/09 22:36:41;;;;;;;32.13;14.90;;;;;;;;;;6232009;23;20195;-91
2022/11/09 22:40:06;;;;;;;30.37;14.80;;;;;;;;;;6232497;23;20221;-91
2022/11/09 22:43:33;;;;;;;29.03;12.13;;;;;;;;;;6232625;23;20183;-90
2022/11/09 22:46:57;;;;;;;25.10;11.98;;;;;;;;;;6232318;23;20271;-91
2022/11/09 22:50:25;;;;;;;26.33;12.23;;;;;;;;;;6234906;23;20167;-90
2022/11/09 22:53:52;;;;;;;26.27;11.60;;;;;;;;;;6231292;23;20183;-90
2022/11/09 22:57:17;;;;;;;27.20;11.90;;;;;;;;;;6230717;23;20163;-89
2022/11/09 23:00:43;;;;;;;25.93;11.93;;;;;;;;;;6232367;23;20171;-89
2022/11/09 23:04:08;;;;;;;28.50;12.10;;;;;;;;;;6232023;23;20199;-91
2022/11/09 23:07:32;;;;;;;27.43;11.37;;;;;;;;;;6231893;23;20222;-90
2022/11/09 23:11:00;;;;;;;27.93;12.13;;;;;;;;;;6234336;23;20217;-91
2022/11/09 23:21:47;;;;;;;21.80;10.00;;;;;;;;;;6235226;23;20191;-92
2022/11/09 23:28:54;;;;;;;25.20;10.50;;;;;;;;;;6233374;23;20186;-92
2022/11/09 23:32:19;;;;;;;28.20;10.83;;;;;;;;;;6232887;23;20179;-91
2022/11/09 23:35:47;;;;;;;24.70;10.53;;;;;;;;;;6233296;23;20202;-89
2022/11/09 23:39:12;;;;;;;26.33;10.73;;;;;;;;;;6232740;23;20171;-91
2022/11/09 23:42:36;;;;;;;23.37;11.30;;;;;;;;;;6232072;23;20172;-90
2022/11/09 23:50:13;;;;;;;23.77;10.67;;;;;;;;;;6232605;23;20183;-90
2022/11/09 23:53:39;;;;;;;123.33;39.37;;;;;;;;;;6232262;23;20237;-91
2022/11/09 23:57:05;;;;;;;21.07;10.50;;;;;;;;;;6232495;23;20242;-89
